Terminal Aerodrome Forecast
Issued by NWS Albany, NY

Home | Current Version | Previous Version | Text Only | Print | Product List | Glossary On
Versions: 1 2 3 4 5 6 7 8 9 10 11 12 13 14 15 16 17
000
FTUS41 KALY 271734
TAFPOU
TAF
KPOU 271734Z 2718/2818 20006KT 5SM -SHRA OVC035
     FM272200 20004KT P6SM VCSH BKN050
     FM280100 20004KT P6SM BKN050
     FM280800 01004KT 2SM BR BKN008
     FM281200 VRB03KT P6SM SCT250=

USA.gov is the U.S. government's official web portal to all federal, state and local government web resources and services.